Time;durP1;ratioP1;P1;durP2;ratioP2;P2;SDS_P1;SDS_P2;PMS_P1;PMS_P2;Temp;Humidity;BMP_temperature;BMP_pressure;BME280_temperature;BME280_humidity;BME280_pressure;Samples;Min_cycle;Max_cycle;Signal;HPM_P1;HPM_P2
2023/06/09 00:00:32;;;;;;;9.47;7.33;;;20.60;75.70;;;;;;5054550;28;20453;-57
2023/06/09 00:02:59;;;;;;;7.63;6.57;;;20.50;75.30;;;;;;5054132;28;20470;-57
2023/06/09 00:05:32;;;;;;;8.80;7.17;;;20.50;75.60;;;;;;5054527;28;20483;-57
2023/06/09 00:07:58;;;;;;;8.17;7.37;;;20.50;76.00;;;;;;5054418;28;20430;-57
2023/06/09 00:10:27;;;;;;;7.87;6.87;;;20.50;76.30;;;;;;5054395;28;20896;-57
2023/06/09 00:12:54;;;;;;;9.37;7.20;;;20.40;76.00;;;;;;5053997;28;20947;-57
2023/06/09 00:15:21;;;;;;;8.90;7.77;;;20.40;76.40;;;;;;5054203;28;20473;-57
2023/06/09 00:17:48;;;;;;;7.77;7.00;;;20.40;76.60;;;;;;5053850;28;20476;-57
2023/06/09 00:20:15;;;;;;;12.40;7.07;;;20.30;76.70;;;;;;5054019;28;20472;-57
2023/06/09 00:22:44;;;;;;;8.17;7.37;;;20.30;76.70;;;;;;5054112;28;20465;-57
2023/06/09 00:25:12;;;;;;;8.53;7.47;;;20.30;76.90;;;;;;5054065;28;20459;-57
2023/06/09 00:27:40;;;;;;;9.67;6.83;;;20.20;76.90;;;;;;5053922;28;20556;-57
2023/06/09 00:30:08;;;;;;;7.03;6.43;;;20.20;76.90;;;;;;5053719;28;20966;-57
2023/06/09 00:32:35;;;;;;;8.13;6.47;;;20.10;77.10;;;;;;5053925;28;20445;-57
2023/06/09 00:35:02;;;;;;;9.80;6.33;;;20.00;77.80;;;;;;5053900;28;20480;-57
2023/06/09 00:37:30;;;;;;;9.97;6.87;;;20.00;76.80;;;;;;5053824;28;20465;-57
2023/06/09 00:39:57;;;;;;;14.33;7.13;;;19.90;76.90;;;;;;5053774;28;20868;-57
2023/06/09 00:42:24;;;;;;;7.47;6.77;;;19.90;76.90;;;;;;5053487;28;20859;-57
2023/06/09 00:44:52;;;;;;;14.73;7.70;;;19.80;76.80;;;;;;5053540;28;20493;-57
2023/06/09 00:47:19;;;;;;;9.00;7.03;;;19.80;77.00;;;;;;5053427;28;20979;-57
2023/06/09 00:49:46;;;;;;;18.07;8.37;;;19.80;77.30;;;;;;5053066;28;20445;-57
2023/06/09 00:52:13;;;;;;;13.93;7.00;;;19.70;77.20;;;;;;5053859;28;20450;-57
2023/06/09 00:54:41;;;;;;;24.10;7.30;;;19.70;77.60;;;;;;5053765;28;20445;-57
2023/06/09 00:57:08;;;;;;;16.70;7.97;;;19.70;77.80;;;;;;5053315;28;21007;-57
2023/06/09 00:59:35;;;;;;;15.83;7.50;;;19.60;77.70;;;;;;5053492;28;20820;-57
2023/06/09 01:02:05;;;;;;;14.30;7.20;;;19.60;78.10;;;;;;5053152;28;20982;-57
2023/06/09 01:04:32;;;;;;;11.80;6.97;;;19.50;78.10;;;;;;5053103;28;20516;-57
2023/06/09 01:07:09;;;;;;;13.40;6.40;;;19.60;78.40;;;;;;5053357;28;20470;-57
2023/06/09 01:09:43;;;;;;;12.70;7.33;;;19.50;78.40;;;;;;5053145;28;20908;-57
2023/06/09 01:12:16;;;;;;;15.43;7.00;;;19.50;78.60;;;;;;5053061;28;20465;-57
2023/06/09 01:14:49;;;;;;;14.90;7.60;;;19.50;78.90;;;;;;5053573;28;20430;-57
2023/06/09 01:17:19;;;;;;;10.90;6.80;;;19.40;79.10;;;;;;5053474;28;20470;-57
2023/06/09 01:19:48;;;;;;;13.30;8.07;;;19.40;79.50;;;;;;5053174;28;20536;-57
2023/06/09 01:22:28;;;;;;;14.37;8.80;;;19.40;79.60;;;;;;5053562;28;20441;-57
2023/06/09 01:25:05;;;;;;;11.17;8.07;;;19.40;79.80;;;;;;5052867;28;20476;-57
2023/06/09 01:27:36;;;;;;;11.73;8.40;;;19.40;80.20;;;;;;5052935;28;20465;-57
2023/06/09 01:30:03;;;;;;;11.73;9.83;;;19.40;80.50;;;;;;5053202;28;20487;-57
2023/06/09 01:32:31;;;;;;;13.13;9.60;;;19.40;80.60;;;;;;5053238;28;20813;-57
2023/06/09 01:34:58;;;;;;;10.20;9.27;;;19.40;80.80;;;;;;5053043;28;20816;-57
2023/06/09 01:37:26;;;;;;;10.67;9.50;;;19.40;80.80;;;;;;5052374;28;20488;-57
2023/06/09 01:39:53;;;;;;;11.33;9.83;;;19.40;81.00;;;;;;5053021;28;20446;-57
2023/06/09 01:42:20;;;;;;;10.87;8.80;;;19.40;81.00;;;;;;5052930;28;20457;-57
2023/06/09 01:44:48;;;;;;;14.60;10.90;;;19.40;80.80;;;;;;5053055;28;20488;-57
2023/06/09 01:47:15;;;;;;;10.60;9.63;;;19.40;81.00;;;;;;5053903;28;20474;-57
2023/06/09 01:49:49;;;;;;;12.57;10.60;;;19.40;81.10;;;;;;5053794;28;20544;-57
2023/06/09 01:52:21;;;;;;;12.57;10.53;;;19.40;81.10;;;;;;5054400;28;20433;-57
2023/06/09 01:54:55;;;;;;;13.40;12.00;;;19.40;81.10;;;;;;5053493;28;20421;-57
2023/06/09 01:57:28;;;;;;;16.63;11.80;;;19.30;81.20;;;;;;5053179;28;20466;-57
2023/06/09 02:00:00;;;;;;;11.27;10.20;;;19.30;81.30;;;;;;5053171;28;20442;-57
2023/06/09 02:02:31;;;;;;;11.73;10.53;;;19.30;81.50;;;;;;5054542;28;20437;-57
2023/06/09 02:04:59;;;;;;;12.33;11.13;;;19.30;81.70;;;;;;5056847;28;20488;-57
2023/06/09 02:07:27;;;;;;;13.13;10.30;;;19.30;81.80;;;;;;5056720;28;20469;-57
2023/06/09 02:09:55;;;;;;;12.23;10.90;;;19.30;81.50;;;;;;5056658;28;20511;-57
2023/06/09 02:12:22;;;;;;;12.47;11.30;;;19.30;81.50;;;;;;5056581;28;20474;-57
2023/06/09 02:14:48;;;;;;;11.77;10.80;;;19.30;81.70;;;;;;5056586;28;20448;-57
2023/06/09 02:17:17;;;;;;;12.63;11.37;;;19.20;81.70;;;;;;5056619;28;20473;-57
2023/06/09 02:19:45;;;;;;;12.00;10.97;;;19.20;81.80;;;;;;5056435;28;20480;-57
2023/06/09 02:22:12;;;;;;;11.17;10.20;;;19.20;81.60;;;;;;5056286;28;20943;-57
2023/06/09 02:24:38;;;;;;;12.60;11.37;;;19.10;81.50;;;;;;5056441;28;20558;-57
2023/06/09 02:27:06;;;;;;;12.80;10.20;;;19.00;81.40;;;;;;5056864;28;20473;-57
2023/06/09 02:29:33;;;;;;;13.30;9.23;;;19.00;81.10;;;;;;5056056;28;20499;-57
2023/06/09 02:32:00;;;;;;;16.03;9.60;;;18.90;80.80;;;;;;5056768;28;20452;-57
2023/06/09 02:34:29;;;;;;;10.37;9.47;;;18.80;80.20;;;;;;5056245;28;20843;-57
2023/06/09 02:36:58;;;;;;;10.40;9.10;;;18.80;80.10;;;;;;5056055;28;20470;-57
2023/06/09 02:39:25;;;;;;;11.30;8.27;;;18.70;80.10;;;;;;5055820;28;20943;-57
2023/06/09 02:41:51;;;;;;;10.13;8.87;;;18.70;79.80;;;;;;5055739;28;20955;-57
2023/06/09 02:44:18;;;;;;;11.47;8.93;;;18.70;79.80;;;;;;5055952;28;20481;-57
2023/06/09 02:46:45;;;;;;;11.43;8.53;;;18.60;79.80;;;;;;5055872;28;20538;-57
2023/06/09 02:49:12;;;;;;;14.00;9.03;;;18.50;79.80;;;;;;5055616;28;20944;-57
2023/06/09 02:51:40;;;;;;;11.60;7.50;;;18.50;79.80;;;;;;5055861;28;20457;-57
2023/06/09 02:54:07;;;;;;;12.17;8.60;;;18.50;79.90;;;;;;5055807;28;20839;-57
2023/06/09 02:56:34;;;;;;;16.30;9.33;;;18.50;80.20;;;;;;5055707;28;20469;-57
2023/06/09 02:59:01;;;;;;;15.10;9.20;;;18.40;80.50;;;;;;5055666;28;20449;-57
2023/06/09 03:01:34;;;;;;;12.63;9.30;;;18.40;80.90;;;;;;5055741;28;20503;-57
2023/06/09 03:04:00;;;;;;;9.77;8.70;;;18.40;80.90;;;;;;5055623;28;20470;-57
2023/06/09 03:06:27;;;;;;;13.40;8.70;;;18.40;81.10;;;;;;5055539;28;20524;-57
2023/06/09 03:08:55;;;;;;;10.73;8.90;;;18.30;80.80;;;;;;5055560;28;20511;-57
2023/06/09 03:11:22;;;;;;;11.13;10.00;;;18.30;81.20;;;;;;5055373;28;20469;-57
2023/06/09 03:13:48;;;;;;;12.30;9.87;;;18.30;81.70;;;;;;5054667;28;20434;-57
2023/06/09 03:16:15;;;;;;;12.60;8.90;;;18.30;81.50;;;;;;5055353;28;20525;-57
2023/06/09 03:18:42;;;;;;;10.23;9.20;;;18.20;81.70;;;;;;5055424;28;20815;-57
2023/06/09 03:21:09;;;;;;;11.50;8.60;;;18.20;82.00;;;;;;5054906;28;20943;-57
2023/06/09 03:23:36;;;;;;;11.00;9.80;;;18.20;82.10;;;;;;5055258;28;20449;-57
2023/06/09 03:26:05;;;;;;;11.23;9.60;;;18.20;82.00;;;;;;5055147;28;20570;-57
2023/06/09 03:28:31;;;;;;;13.27;9.57;;;18.20;82.10;;;;;;5054943;28;20876;-57
2023/06/09 03:30:58;;;;;;;10.07;9.27;;;18.20;82.20;;;;;;5054809;28;20796;-57
2023/06/09 03:33:25;;;;;;;9.77;8.87;;;18.20;82.50;;;;;;5055059;28;20453;-57
2023/06/09 03:35:52;;;;;;;16.47;9.10;;;18.20;82.50;;;;;;5054994;28;20465;-57
2023/06/09 03:38:19;;;;;;;9.53;8.80;;;18.20;82.60;;;;;;5054650;28;20450;-57
2023/06/09 03:40:46;;;;;;;10.33;8.87;;;18.20;82.60;;;;;;5054920;28;20450;-57
2023/06/09 03:43:14;;;;;;;9.80;8.90;;;18.20;82.60;;;;;;5054587;28;20940;-57
2023/06/09 03:45:40;;;;;;;11.57;9.27;;;18.10;82.70;;;;;;5054837;28;20508;-57
2023/06/09 03:48:07;;;;;;;11.93;9.20;;;18.10;82.70;;;;;;5054828;28;20441;-57
2023/06/09 03:50:34;;;;;;;16.23;10.70;;;18.10;82.70;;;;;;5054714;28;20449;-57
2023/06/09 03:53:01;;;;;;;11.27;9.53;;;18.00;82.80;;;;;;5054910;28;20500;-57
2023/06/09 03:55:31;;;;;;;10.00;9.00;;;18.00;83.00;;;;;;5054791;28;20500;-57
2023/06/09 03:57:58;;;;;;;12.80;9.80;;;18.00;82.80;;;;;;5054718;28;20458;-57
2023/06/09 04:00:26;;;;;;;10.13;8.73;;;18.00;82.60;;;;;;5054265;28;20951;-57
2023/06/09 04:02:53;;;;;;;10.63;9.53;;;17.90;83.10;;;;;;5054636;28;20453;-57
2023/06/09 04:05:19;;;;;;;11.53;9.93;;;18.00;83.80;;;;;;5054352;28;20481;-57
2023/06/09 04:07:46;;;;;;;10.20;9.30;;;18.00;83.90;;;;;;5054270;28;20542;-57
2023/06/09 04:10:13;;;;;;;10.43;9.47;;;18.00;84.80;;;;;;5054638;28;20457;-57
2023/06/09 04:12:41;;;;;;;10.10;9.20;;;18.00;83.90;;;;;;5053973;28;20511;-57
2023/06/09 04:15:09;;;;;;;12.80;10.87;;;18.00;84.00;;;;;;5054036;28;20947;-57
2023/06/09 04:17:37;;;;;;;13.40;9.70;;;18.10;84.60;;;;;;5054069;28;20473;-57
2023/06/09 04:20:07;;;;;;;12.20;10.90;;;18.10;84.90;;;;;;5054132;28;20481;-57
2023/06/09 04:22:35;;;;;;;11.10;10.17;;;18.10;85.20;;;;;;5054138;28;20426;-57
2023/06/09 04:25:02;;;;;;;13.40;12.13;;;18.20;85.40;;;;;;5053167;28;20485;-57
2023/06/09 04:27:30;;;;;;;15.43;12.97;;;18.20;85.60;;;;;;5053941;28;20461;-57
2023/06/09 04:29:57;;;;;;;12.93;11.73;;;18.20;86.10;;;;;;5054015;28;20481;-57
2023/06/09 04:32:26;;;;;;;14.23;12.47;;;18.20;86.20;;;;;;5054001;28;20893;-57
2023/06/09 04:34:54;;;;;;;13.37;12.10;;;18.20;86.40;;;;;;5053660;28;20959;-57
2023/06/09 04:37:24;;;;;;;15.83;11.47;;;18.20;86.90;;;;;;5059001;28;20567;-57
2023/06/09 04:39:51;;;;;;;13.57;10.40;;;18.20;86.70;;;;;;5074087;28;20445;-57
2023/06/09 04:42:19;;;;;;;12.10;10.90;;;18.30;86.80;;;;;;5073749;28;20448;-57
2023/06/09 04:44:47;;;;;;;15.30;11.43;;;18.30;87.00;;;;;;5073322;28;21055;-57
2023/06/09 04:47:17;;;;;;;12.20;11.03;;;18.30;87.30;;;;;;5073314;28;20480;-57
2023/06/09 04:49:46;;;;;;;14.77;12.47;;;18.30;87.60;;;;;;5073880;28;20449;-57
2023/06/09 04:52:17;;;;;;;12.87;11.77;;;18.40;88.30;;;;;;5075584;28;20456;-57
2023/06/09 04:54:44;;;;;;;15.37;13.80;;;18.50;88.90;;;;;;5074709;28;20437;-57
2023/06/09 04:57:11;;;;;;;15.90;13.30;;;18.50;89.20;;;;;;5073889;28;20460;-57
2023/06/09 04:59:39;;;;;;;14.37;12.87;;;18.50;89.50;;;;;;5073693;28;20448;-57
2023/06/09 05:02:06;;;;;;;17.07;15.57;;;18.60;89.80;;;;;;5073272;28;20942;-57
2023/06/09 05:04:33;;;;;;;14.80;13.53;;;18.60;90.00;;;;;;5073601;28;20539;-57
2023/06/09 05:07:00;;;;;;;15.93;14.40;;;18.70;90.00;;;;;;5073559;28;20468;-57
2023/06/09 05:09:28;;;;;;;15.70;14.20;;;18.80;90.20;;;;;;5073472;28;20449;-57
2023/06/09 05:11:55;;;;;;;14.30;13.07;;;18.80;90.30;;;;;;5073440;28;20459;-57
2023/06/09 05:14:22;;;;;;;14.97;13.67;;;18.90;90.60;;;;;;5073399;28;20460;-57
2023/06/09 05:16:49;;;;;;;16.60;15.07;;;19.00;90.70;;;;;;5073032;28;20473;-57
2023/06/09 05:19:15;;;;;;;15.43;14.13;;;19.10;90.70;;;;;;5073291;28;20455;-57
2023/06/09 05:21:45;;;;;;;14.10;12.93;;;19.10;90.70;;;;;;5073318;28;20441;-57
2023/06/09 05:24:12;;;;;;;16.00;14.47;;;19.20;90.70;;;;;;5073387;28;20872;-57
2023/06/09 05:26:43;;;;;;;14.17;12.93;;;19.30;90.80;;;;;;5073397;28;20496;-57
2023/06/09 05:29:09;;;;;;;15.00;12.37;;;19.40;90.70;;;;;;5072972;28;20436;-57
2023/06/09 05:31:36;;;;;;;11.73;10.73;;;19.40;90.70;;;;;;5073333;28;20544;-57
2023/06/09 05:34:03;;;;;;;14.00;12.47;;;19.50;90.00;;;;;;5073225;28;20451;-57
2023/06/09 05:36:29;;;;;;;13.03;12.00;;;19.50;90.20;;;;;;5074976;28;20461;-57
2023/06/09 05:38:56;;;;;;;11.83;10.83;;;19.60;90.30;;;;;;5077092;28;20497;-57
2023/06/09 05:41:23;;;;;;;11.50;10.60;;;19.70;90.30;;;;;;5077074;28;20810;-57
2023/06/09 05:43:51;;;;;;;13.83;12.30;;;19.80;89.80;;;;;;5077289;28;20467;-57
2023/06/09 05:46:18;;;;;;;14.73;11.40;;;19.90;89.90;;;;;;5076612;28;20553;-57
2023/06/09 05:48:45;;;;;;;12.93;11.83;;;20.00;89.90;;;;;;5077567;28;20506;-57
2023/06/09 05:51:12;;;;;;;15.27;13.87;;;20.10;89.90;;;;;;5076969;28;20456;-57
2023/06/09 05:53:39;;;;;;;14.03;12.83;;;20.10;89.90;;;;;;5077014;28;20476;-57
2023/06/09 05:56:06;;;;;;;13.90;12.47;;;20.20;89.80;;;;;;5076873;28;20471;-57
2023/06/09 05:58:33;;;;;;;14.50;13.20;;;20.30;88.80;;;;;;5076845;28;20485;-57
2023/06/09 06:01:03;;;;;;;13.43;12.33;;;20.40;88.90;;;;;;5076618;28;20452;-57
2023/06/09 06:03:31;;;;;;;14.33;13.00;;;20.40;87.20;;;;;;5076513;28;20949;-57
2023/06/09 06:05:58;;;;;;;15.63;14.27;;;20.50;86.90;;;;;;5076238;28;20990;-57
2023/06/09 06:08:25;;;;;;;12.13;11.13;;;20.60;86.90;;;;;;5076787;28;20478;-57
2023/06/09 06:10:52;;;;;;;14.07;12.87;;;20.70;87.10;;;;;;5076526;28;20535;-57
2023/06/09 06:13:19;;;;;;;13.67;12.53;;;20.80;86.90;;;;;;5076971;28;20482;-57
2023/06/09 06:15:46;;;;;;;14.23;12.20;;;20.90;86.60;;;;;;5076573;28;20452;-57
2023/06/09 06:18:14;;;;;;;11.33;10.40;;;20.90;85.60;;;;;;5076491;28;20472;-57
2023/06/09 06:20:41;;;;;;;13.73;12.43;;;21.10;84.90;;;;;;5076585;28;20455;-57
2023/06/09 06:23:08;;;;;;;13.57;12.10;;;21.20;84.30;;;;;;5076576;28;20499;-58
2023/06/09 06:25:36;;;;;;;13.70;12.50;;;21.30;84.30;;;;;;5076306;28;20567;-57
2023/06/09 06:28:04;;;;;;;10.40;9.50;;;21.50;84.10;;;;;;5076526;28;20797;-57
2023/06/09 06:30:30;;;;;;;9.23;8.40;;;21.60;83.80;;;;;;5076423;28;20452;-57
2023/06/09 06:32:57;;;;;;;10.73;9.63;;;21.70;82.80;;;;;;5076322;28;20444;-57
2023/06/09 06:35:27;;;;;;;8.73;7.93;;;21.90;81.50;;;;;;5077000;28;20448;-57
2023/06/09 06:37:54;;;;;;;8.37;7.77;;;22.00;80.10;;;;;;5076944;28;20437;-57
2023/06/09 06:40:21;;;;;;;9.40;8.50;;;22.20;79.10;;;;;;5076187;28;20452;-57
2023/06/09 06:42:47;;;;;;;9.70;8.70;;;22.30;78.60;;;;;;5076114;28;20444;-57
2023/06/09 06:45:15;;;;;;;10.80;9.73;;;22.50;78.10;;;;;;5076881;28;20487;-60
2023/06/09 06:47:42;;;;;;;10.07;9.10;;;22.70;77.80;;;;;;5077868;28;20471;-58
2023/06/09 06:50:10;;;;;;;8.63;7.83;;;22.80;76.90;;;;;;5077915;28;20452;-58
2023/06/09 06:52:38;;;;;;;9.13;6.97;;;23.00;76.20;;;;;;5075925;28;20460;-58
2023/06/09 06:55:07;;;;;;;8.43;7.70;;;23.10;74.70;;;;;;5075841;28;20457;-58
2023/06/09 06:57:34;;;;;;;8.33;7.70;;;23.30;73.40;;;;;;5075674;28;20839;-58
2023/06/09 07:00:00;;;;;;;7.30;6.70;;;23.50;72.50;;;;;;5075763;28;20471;-58
2023/06/09 07:02:27;;;;;;;6.73;6.13;;;23.70;70.70;;;;;;5075704;28;20451;-58
2023/06/09 07:04:54;;;;;;;6.70;6.10;;;23.90;69.80;;;;;;5075609;28;20453;-58
2023/06/09 07:07:22;;;;;;;7.10;6.50;;;24.10;69.70;;;;;;5075478;28;20530;-58
2023/06/09 07:09:50;;;;;;;6.90;6.30;;;24.30;69.60;;;;;;5075208;28;21012;-58
2023/06/09 07:12:17;;;;;;;7.57;6.50;;;24.50;68.70;;;;;;5075326;28;20476;-57
2023/06/09 07:14:44;;;;;;;6.80;6.20;;;24.70;67.70;;;;;;5075128;28;20832;-57
2023/06/09 07:17:11;;;;;;;7.97;7.27;;;24.90;66.70;;;;;;5075271;28;20464;-58
2023/06/09 07:19:37;;;;;;;6.47;5.97;;;25.10;65.40;;;;;;5075440;28;20449;-58
2023/06/09 07:22:04;;;;;;;7.17;6.63;;;25.30;64.70;;;;;;5075392;28;20449;-58
2023/06/09 07:24:31;;;;;;;6.67;6.00;;;25.40;64.50;;;;;;5075272;28;20460;-57
2023/06/09 07:26:59;;;;;;;7.17;6.57;;;25.60;62.20;;;;;;5075153;28;21021;-58
2023/06/09 07:29:27;;;;;;;6.80;6.00;;;25.80;60.90;;;;;;5075306;28;20448;-58
2023/06/09 07:31:53;;;;;;;6.53;5.87;;;26.00;59.70;;;;;;5075163;28;20449;-58
2023/06/09 07:34:20;;;;;;;6.33;5.83;;;26.10;59.20;;;;;;5075219;28;20456;-57
2023/06/09 07:36:50;;;;;;;11.10;6.40;;;26.30;57.40;;;;;;5073088;28;20460;-58
2023/06/09 07:39:16;;;;;;;7.07;6.47;;;26.40;56.40;;;;;;5055004;28;20511;-58
2023/06/09 07:41:43;;;;;;;8.37;6.20;;;26.50;55.60;;;;;;5055043;28;20453;-57
2023/06/09 07:44:11;;;;;;;6.73;6.13;;;26.70;55.60;;;;;;5054958;28;20452;-58
2023/06/09 07:46:38;;;;;;;8.43;5.80;;;26.80;55.30;;;;;;5054814;28;20489;-58
2023/06/09 07:49:04;;;;;;;7.00;6.30;;;27.00;55.40;;;;;;5054582;28;20872;-58
2023/06/09 07:51:36;;;;;;;6.43;5.93;;;27.20;56.00;;;;;;5054910;28;20446;-58
2023/06/09 07:54:03;;;;;;;5.93;5.43;;;27.30;54.00;;;;;;5054958;28;20425;-58
2023/06/09 07:56:30;;;;;;;7.07;6.00;;;27.50;53.10;;;;;;5054855;28;20886;-58
2023/06/09 07:58:57;;;;;;;6.77;6.27;;;27.60;53.40;;;;;;5054945;28;20456;-58
2023/06/09 08:01:25;;;;;;;6.70;6.20;;;27.70;52.60;;;;;;5054777;28;20460;-56
2023/06/09 08:03:52;;;;;;;7.20;6.70;;;27.90;51.60;;;;;;5054470;28;20533;-56
2023/06/09 08:06:19;;;;;;;6.00;5.53;;;28.00;51.50;;;;;;5054332;28;20485;-56
2023/06/09 08:08:46;;;;;;;6.17;5.77;;;28.20;51.30;;;;;;5054548;28;20450;-56
2023/06/09 08:11:13;;;;;;;6.40;5.90;;;28.40;51.00;;;;;;5054241;28;20835;-56
2023/06/09 08:13:39;;;;;;;6.43;5.93;;;28.50;50.20;;;;;;5054290;28;20915;-57
2023/06/09 08:16:06;;;;;;;6.73;6.30;;;28.70;49.70;;;;;;5054408;28;20466;-57
2023/06/09 08:18:34;;;;;;;7.40;6.70;;;28.80;48.50;;;;;;5054329;28;20445;-57
2023/06/09 08:21:01;;;;;;;6.03;5.53;;;28.80;47.30;;;;;;5053946;28;20935;-57
2023/06/09 08:23:27;;;;;;;8.40;6.27;;;28.90;48.30;;;;;;5054080;28;20943;-57
2023/06/09 08:25:55;;;;;;;6.60;6.10;;;29.00;48.80;;;;;;5054237;28;20896;-57
2023/06/09 08:28:22;;;;;;;6.33;5.83;;;29.20;48.60;;;;;;5053876;28;20823;-57
2023/06/09 08:30:49;;;;;;;6.90;6.30;;;29.40;48.20;;;;;;5054056;28;20449;-57
2023/06/09 08:33:15;;;;;;;6.43;5.90;;;29.60;48.90;;;;;;5054062;28;20456;-57
2023/06/09 08:35:43;;;;;;;6.63;6.17;;;29.80;47.00;;;;;;5053939;28;20523;-57
2023/06/09 08:38:10;;;;;;;6.67;5.40;;;30.00;46.50;;;;;;5054382;28;20453;-57
2023/06/09 08:40:37;;;;;;;8.50;7.80;;;30.20;45.60;;;;;;5054045;28;20449;-57
2023/06/09 08:43:04;;;;;;;5.77;5.27;;;30.30;44.60;;;;;;5053881;28;20445;-57
2023/06/09 08:45:34;;;;;;;6.80;6.30;;;30.50;43.40;;;;;;5054024;28;20453;-57
2023/06/09 08:48:02;;;;;;;6.70;6.20;;;30.70;44.00;;;;;;5053822;28;20456;-57
2023/06/09 08:50:30;;;;;;;7.10;6.20;;;30.80;43.50;;;;;;5053617;28;20854;-57
2023/06/09 08:52:58;;;;;;;8.20;6.57;;;31.00;43.90;;;;;;5053497;28;20993;-57
2023/06/09 08:55:25;;;;;;;5.87;5.47;;;31.10;42.50;;;;;;5053962;28;20453;-57
2023/06/09 08:57:52;;;;;;;6.63;6.03;;;31.30;42.00;;;;;;5053221;28;20970;-57
2023/06/09 09:00:19;;;;;;;6.87;6.30;;;31.50;42.90;;;;;;5053192;28;20935;-57
2023/06/09 09:02:46;;;;;;;9.53;6.00;;;31.50;40.10;;;;;;5053617;28;20488;-57
2023/06/09 09:05:13;;;;;;;6.93;6.27;;;31.60;42.10;;;;;;5053767;28;20456;-57
2023/06/09 09:07:41;;;;;;;7.00;6.40;;;31.80;43.30;;;;;;5053160;28;20627;-57
2023/06/09 09:10:11;;;;;;;5.63;5.33;;;32.00;43.30;;;;;;5053318;28;20483;-57
2023/06/09 09:12:48;;;;;;;6.70;6.07;;;32.20;42.60;;;;;;5052771;28;20472;-57
2023/06/09 09:15:14;;;;;;;6.97;6.37;;;32.50;41.30;;;;;;5053271;28;20523;-57
2023/06/09 09:17:41;;;;;;;6.87;6.30;;;32.70;40.50;;;;;;5053213;28;20465;-57
2023/06/09 09:20:10;;;;;;;6.07;5.60;;;32.90;39.40;;;;;;5053252;28;20468;-57
2023/06/09 09:22:44;;;;;;;6.80;6.30;;;33.10;38.50;;;;;;5053270;28;20449;-57
2023/06/09 09:25:21;;;;;;;6.67;6.17;;;33.40;38.70;;;;;;5053017;28;20894;-57
2023/06/09 09:28:02;;;;;;;7.03;6.20;;;33.60;38.20;;;;;;5053133;28;20491;-57
2023/06/09 09:30:46;;;;;;;7.23;6.50;;;33.80;37.50;;;;;;5053215;28;20428;-57
2023/06/09 09:33:15;;;;;;;6.67;6.17;;;34.10;36.00;;;;;;5053264;28;20443;-57
2023/06/09 09:35:47;;;;;;;7.33;6.40;;;34.10;33.50;;;;;;5053135;28;20457;-57
2023/06/09 09:38:17;;;;;;;7.57;6.97;;;34.30;34.70;;;;;;5052990;28;20853;-57
2023/06/09 09:40:47;;;;;;;6.83;6.37;;;34.50;35.00;;;;;;5053185;28;20465;-57
2023/06/09 09:43:14;;;;;;;7.23;6.33;;;34.60;35.10;;;;;;5053982;28;20455;-57
2023/06/09 09:45:44;;;;;;;7.07;6.37;;;34.80;34.90;;;;;;5053161;28;20448;-57
2023/06/09 09:48:13;;;;;;;6.63;6.20;;;35.00;32.80;;;;;;5053712;28;20467;-57
2023/06/09 09:50:41;;;;;;;6.30;5.80;;;35.10;34.10;;;;;;5052867;28;20445;-56
2023/06/09 09:53:09;;;;;;;6.90;6.30;;;35.30;33.80;;;;;;5052823;28;20459;-56
2023/06/09 09:55:37;;;;;;;6.17;5.77;;;35.50;34.10;;;;;;5053076;28;20476;-56
2023/06/09 09:58:07;;;;;;;6.17;5.77;;;35.70;34.00;;;;;;5053141;28;20202;-56
2023/06/09 10:00:36;;;;;;;6.17;5.37;;;36.00;32.90;;;;;;5053062;28;20207;-56
2023/06/09 10:03:07;;;;;;;8.27;6.50;;;36.30;31.70;;;;;;5053045;28;20257;-56
2023/06/09 10:05:38;;;;;;;6.37;5.97;;;36.60;31.80;;;;;;5053046;28;20260;-56
2023/06/09 10:08:06;;;;;;;10.23;6.50;;;36.90;31.20;;;;;;5052833;28;20301;-56
2023/06/09 10:10:34;;;;;;;8.57;6.07;;;37.20;30.60;;;;;;5052830;28;20230;-56
2023/06/09 10:13:03;;;;;;;7.47;5.88;;;37.60;30.20;;;;;;5052456;28;20294;-56
2023/06/09 10:15:32;;;;;;;6.43;5.88;;;38.00;29.60;;;;;;5052590;28;20205;-56
2023/06/09 10:18:00;;;;;;;6.82;5.68;;;38.30;28.90;;;;;;5052705;28;20238;-56
2023/06/09 10:20:27;;;;;;;7.00;5.20;;;38.60;27.80;;;;;;5052661;28;20202;-57
2023/06/09 10:22:54;;;;;;;5.47;4.97;;;38.80;27.70;;;;;;5053200;28;20646;-56
2023/06/09 10:25:23;;;;;;;5.55;5.15;;;39.00;26.90;;;;;;5056546;28;20199;-56
2023/06/09 10:27:51;;;;;;;6.40;5.90;;;39.30;26.50;;;;;;5056229;28;20309;-56
2023/06/09 10:30:19;;;;;;;6.35;5.85;;;39.50;25.30;;;;;;5056242;28;20210;-56
2023/06/09 10:32:52;;;;;;;6.05;5.65;;;39.80;25.20;;;;;;5056326;28;20209;-56
2023/06/09 10:35:26;;;;;;;5.53;5.22;;;40.00;23.60;;;;;;5056254;28;20194;-56
2023/06/09 10:37:53;;;;;;;6.25;5.63;;;39.50;24.70;;;;;;5055953;28;20218;-56
2023/06/09 10:40:29;;;;;;;5.93;5.43;;;39.60;26.50;;;;;;5056124;28;20198;-57
2023/06/09 10:43:13;;;;;;;5.70;5.20;;;39.90;25.80;;;;;;5056263;28;20661;-57
2023/06/09 10:45:51;;;;;;;5.70;5.30;;;40.20;23.80;;;;;;5055929;28;20213;-57
2023/06/09 10:48:44;;;;;;;5.63;4.85;;;40.60;23.30;;;;;;5056028;28;20217;-57
2023/06/09 10:51:40;;;;;;;5.45;4.95;;;41.00;23.80;;;;;;5056078;28;20183;-57
2023/06/09 10:54:23;;;;;;;5.30;4.75;;;41.60;22.50;;;;;;5055990;28;20280;-57
2023/06/09 10:56:55;;;;;;;5.30;4.82;;;42.00;22.90;;;;;;5055911;28;20214;-57
2023/06/09 11:00:12;;;;;;;5.45;4.80;;;42.50;21.20;;;;;;5056240;28;20191;-57
2023/06/09 11:02:40;;;;;;;6.47;5.15;;;43.10;22.00;;;;;;5056388;28;20186;-57
2023/06/09 11:05:09;;;;;;;5.28;4.78;;;43.70;21.90;;;;;;5056236;28;20249;-57
2023/06/09 11:07:50;;;;;;;4.82;4.38;;;44.10;20.80;;;;;;5055133;28;20571;-57
2023/06/09 11:10:36;;;;;;;4.15;3.85;;;44.60;19.80;;;;;;5055641;28;20190;-57
2023/06/09 11:13:23;;;;;;;4.50;4.10;;;44.80;18.20;;;;;;5055295;28;20253;-57
2023/06/09 11:16:01;;;;;;;4.78;4.28;;;45.00;18.80;;;;;;5055245;28;20233;-57
2023/06/09 11:18:29;;;;;;;4.38;3.92;;;45.40;19.70;;;;;;5055592;28;20187;-57
2023/06/09 11:21:16;;;;;;;4.63;4.22;;;45.80;20.30;;;;;;5055533;28;20639;-57
2023/06/09 11:24:03;;;;;;;4.40;4.00;;;46.20;18.40;;;;;;5055514;28;20204;-57
2023/06/09 11:26:32;;;;;;;4.47;4.18;;;46.70;16.70;;;;;;5055188;28;20240;-57
2023/06/09 11:29:00;;;;;;;6.43;4.20;;;46.80;17.20;;;;;;5055282;28;20248;-57
2023/06/09 11:31:27;;;;;;;4.25;3.95;;;47.00;17.00;;;;;;5055109;28;20203;-57
2023/06/09 11:33:55;;;;;;;4.22;3.92;;;47.10;17.20;;;;;;5054739;28;20206;-57
2023/06/09 11:36:27;;;;;;;5.55;3.42;;;47.30;16.70;;;;;;5055038;28;20237;-57
2023/06/09 11:38:58;;;;;;;3.83;3.55;;;47.50;16.30;;;;;;5055054;28;20187;-57
2023/06/09 11:41:25;;;;;;;3.92;3.63;;;47.70;17.60;;;;;;5055084;28;20187;-57
2023/06/09 11:43:53;;;;;;;3.55;3.25;;;47.80;16.30;;;;;;5054996;28;20206;-57
2023/06/09 11:46:20;;;;;;;4.28;3.90;;;47.90;16.00;;;;;;5054925;28;20218;-57
2023/06/09 11:49:04;;;;;;;4.15;3.85;;;47.70;16.40;;;;;;5054418;28;20704;-57
2023/06/09 11:52:02;;;;;;;3.97;3.67;;;47.70;17.00;;;;;;5054841;28;20190;-57
2023/06/09 11:54:46;;;;;;;3.78;3.55;;;47.80;16.10;;;;;;5054809;28;20617;-57
2023/06/09 11:57:16;;;;;;;3.80;3.35;;;48.00;14.50;;;;;;5054647;28;20562;-57
2023/06/09 11:59:44;;;;;;;3.80;3.50;;;47.90;15.90;;;;;;5054639;28;20183;-57
2023/06/09 12:02:12;;;;;;;3.80;3.55;;;47.90;15.60;;;;;;5054690;28;20230;-57
2023/06/09 12:04:41;;;;;;;3.38;3.17;;;48.10;16.20;;;;;;5054577;28;20199;-57
2023/06/09 12:07:14;;;;;;;3.80;3.60;;;48.40;15.80;;;;;;5054370;28;20238;-57
2023/06/09 12:09:42;;;;;;;4.82;3.60;;;48.50;13.60;;;;;;5054457;28;20321;-56
2023/06/09 12:12:10;;;;;;;3.78;3.47;;;48.20;14.00;;;;;;5054086;28;20248;-57
2023/06/09 12:14:37;;;;;;;3.38;3.17;;;48.20;15.90;;;;;;5054399;28;20202;-57
2023/06/09 12:17:05;;;;;;;3.47;3.00;;;48.40;16.00;;;;;;5054260;28;20640;-58
2023/06/09 12:19:32;;;;;;;3.25;3.03;;;48.80;15.60;;;;;;5054210;28;20297;-58
2023/06/09 12:21:58;;;;;;;3.08;2.80;;;49.10;14.80;;;;;;5054257;28;20206;-57
2023/06/09 12:24:28;;;;;;;2.90;2.70;;;49.50;14.50;;;;;;5053886;28;20570;-57
2023/06/09 12:26:56;;;;;;;3.17;2.88;;;50.00;13.70;;;;;;5054061;28;20226;-58
2023/06/09 12:29:26;;;;;;;3.10;2.90;;;50.30;14.40;;;;;;5054200;28;20213;-57
2023/06/09 12:31:53;;;;;;;3.40;3.10;;;50.60;14.30;;;;;;5054171;28;20187;-58
2023/06/09 12:34:24;;;;;;;3.28;3.08;;;50.90;12.50;;;;;;5054087;28;20211;-58
2023/06/09 12:36:50;;;;;;;3.92;3.22;;;50.90;12.10;;;;;;5054068;28;20222;-57
2023/06/09 12:39:18;;;;;;;4.28;3.38;;;50.40;11.20;;;;;;5054531;28;20558;-57
2023/06/09 12:41:46;;;;;;;3.63;3.33;;;49.50;11.80;;;;;;5053922;28;20198;-57
2023/06/09 12:44:20;;;;;;;3.58;3.30;;;48.80;12.40;;;;;;5053917;28;20217;-57
2023/06/09 12:46:54;;;;;;;4.80;2.95;;;48.40;14.00;;;;;;5052900;28;20313;-57
2023/06/09 12:49:28;;;;;;;3.55;3.15;;;48.10;12.90;;;;;;5053665;28;20282;-57